Port Sulphur, LA (70083)

5:34 AM CST on December 29, 2014 (GMT -0600)
HOV / SPES / PSFH | Change Station
CLOSE
Current Station
Personal Weather Station
Location: Port Sulphur, LA
Elevation: 3 ft
Nearby Weather Stations

Elev 3 ft 29.48 °N, 89.69 °W | Updated 6 seconds ago

Overcast
Overcast
58.8 °F
Feels Like 58.8 °F
N
0.0
Wind Variable Wind from SE
Gusts 0.0 mph

Today
High -- | Low -- °F
--% Chance of Precip.
Yesterday
High -- | Low -- °F
Precip. -- in
6:52 AM 5:09 PM
First Quarter, 58% visible
Pressure 30.08 in
Visibility 10.0 miles
Clouds Few 400 ft
Overcast 8000 ft
Dew Point 58 °F
Humidity 98%
Rainfall 0.07 in
Snow Depth Not available.
UV 0 out of 12
Pollen 1.60 out of 12
Air Quality Not available.
Flu Activity Not available.
SPECI KBVE 291132Z AUTO 00000KT 10SM FEW004 OVC080 15/14 A3008 RMK AO2 RAB16E25 P0000 T01500144

More Conditions Fewer Conditions

Pressure 30.08 in
Visibility 10.0 miles
Clouds Few 400 ft
Overcast 8000 ft
Dew Point 58 °F
Humidity 98%
Rainfall 0.07 in
Snow Depth Not available.
UV 0 out of 12
Pollen 1.60 out of 12
Air Quality Not available.
Flu Activity Not available.
SPECI KBVE 291132Z AUTO 00000KT 10SM FEW004 OVC080 15/14 A3008 RMK AO2 RAB16E25 P0000 T01500144

More Conditions Fewer Conditions

10-Day Weather Forecast

Almanac

Astronomy

Dec. 29, 2014 Rise Set
Actual Time
Civil Twilight
Nautical Twilight
Astronomical Twilight
Moon
Length of Visible Light
Length of Day
Tomorrow will be .
, % of the Moon is Illuminated

Today's Extremes

State Highs State Lows

Community

WunderPhotos

Upload Photos

1,781,570 photos uploaded!

WunderBlogs® & News

Nearby

Air Quality

  Air Quality AQ Index Pollutant
Not available.

Snow Depth

Station Depth Elevation

Earthquake Activity

City Distance Mag. Time & Date
Minimum magnitude displayed is 2.5.

Coastal Water Temperatures

Place Temperature

Nearby Weather Stations